createdAt,value
2022-08-17T00:02:26.887Z,16.78
2022-08-17T00:05:32.306Z,16.77
2022-08-17T00:08:37.536Z,16.75
2022-08-17T00:11:42.874Z,16.67
2022-08-17T00:15:08.336Z,16.62
2022-08-17T00:19:05.776Z,16.62
2022-08-17T00:22:31.003Z,16.60
2022-08-17T00:24:59.118Z,16.58
2022-08-17T00:28:01.921Z,16.58
2022-08-17T00:31:04.315Z,16.57
2022-08-17T00:34:08.962Z,16.52
2022-08-17T00:37:11.017Z,16.45
2022-08-17T00:40:16.126Z,16.42
2022-08-17T00:43:28.942Z,16.35
2022-08-17T00:46:39.474Z,16.32
2022-08-17T00:49:41.606Z,16.27
2022-08-17T00:52:50.580Z,16.22
2022-08-17T00:55:53.504Z,16.20
2022-08-17T00:58:57.611Z,16.17
2022-08-17T01:02:00.689Z,16.11
2022-08-17T01:05:03.058Z,16.09
2022-08-17T01:08:09.388Z,16.10
2022-08-17T01:11:11.450Z,16.04
2022-08-17T01:14:13.805Z,15.99
2022-08-17T01:17:15.983Z,15.94
2022-08-17T01:20:18.150Z,15.92
2022-08-17T01:23:23.838Z,15.86
2022-08-17T01:26:26.758Z,15.84
2022-08-17T01:29:31.111Z,15.80
2022-08-17T01:32:33.421Z,15.82
2022-08-17T01:35:35.438Z,15.88
2022-08-17T01:38:38.642Z,15.91
2022-08-17T01:41:41.279Z,15.85
2022-08-17T01:44:43.356Z,15.82
2022-08-17T01:47:47.745Z,15.81
2022-08-17T01:50:52.846Z,15.79
2022-08-17T01:53:59.095Z,15.79
2022-08-17T01:57:01.353Z,15.78
2022-08-17T02:00:07.082Z,15.74
2022-08-17T02:03:14.197Z,15.68
2022-08-17T02:06:27.518Z,15.68
2022-08-17T02:09:30.714Z,15.68
2022-08-17T02:12:39.279Z,15.68
2022-08-17T02:15:42.293Z,15.64
2022-08-17T02:18:44.340Z,15.55
2022-08-17T02:21:49.796Z,15.48
2022-08-17T02:24:58.194Z,15.47
2022-08-17T02:28:04.817Z,15.42
2022-08-17T02:31:09.589Z,15.41
2022-08-17T02:34:12.601Z,15.37
2022-08-17T02:37:17.796Z,15.33
2022-08-17T02:40:35.685Z,15.32
2022-08-17T02:43:38.730Z,15.29
2022-08-17T02:46:40.753Z,15.27
2022-08-17T02:49:47.572Z,15.23
2022-08-17T02:53:01.568Z,15.20
2022-08-17T02:56:04.753Z,15.21
2022-08-17T02:59:11.172Z,15.25
2022-08-17T03:02:13.523Z,15.29
2022-08-17T03:05:19.234Z,15.30
2022-08-17T03:08:21.242Z,15.26
2022-08-17T03:11:24.253Z,15.19
2022-08-17T03:14:26.461Z,15.11
2022-08-17T03:17:28.431Z,15.07
2022-08-17T03:20:33.110Z,15.07
2022-08-17T03:23:41.178Z,15.09
2022-08-17T03:26:43.762Z,15.04
2022-08-17T03:29:45.887Z,14.99
2022-08-17T03:32:50.598Z,15.01
2022-08-17T03:35:52.893Z,15.04
2022-08-17T03:38:54.914Z,15.06
2022-08-17T03:42:32.201Z,15.07
2022-08-17T03:45:54.274Z,15.03
2022-08-17T03:49:15.685Z,15.01
2022-08-17T03:52:36.166Z,15.03
2022-08-17T03:55:57.382Z,15.05
2022-08-17T03:58:59.391Z,15.04
2022-08-17T04:02:09.418Z,15.01
2022-08-17T04:05:11.524Z,14.97
2022-08-17T04:08:13.817Z,14.91
2022-08-17T04:11:15.803Z,14.91
2022-08-17T04:14:17.920Z,14.86
2022-08-17T04:17:20.410Z,14.83
2022-08-17T04:20:24.436Z,14.88
2022-08-17T04:23:32.866Z,14.94
2022-08-17T04:26:53.024Z,14.95
2022-08-17T04:29:56.551Z,14.95
2022-08-17T04:33:07.368Z,14.99
2022-08-17T04:36:10.696Z,14.95
2022-08-17T04:39:12.730Z,14.97
2022-08-17T04:42:17.396Z,15.06
2022-08-17T04:45:19.393Z,15.11
2022-08-17T04:48:22.048Z,15.16
2022-08-17T04:51:37.053Z,15.27
2022-08-17T04:54:39.098Z,15.79
2022-08-17T04:57:45.063Z,16.26
2022-08-17T05:00:47.714Z,16.40
2022-08-17T05:03:50.570Z,16.16
2022-08-17T05:06:54.796Z,15.78
2022-08-17T05:09:56.786Z,15.55
2022-08-17T05:13:06.002Z,15.52
2022-08-17T05:16:09.338Z,15.83
2022-08-17T05:19:11.610Z,16.00
2022-08-17T05:22:14.876Z,15.92
2022-08-17T05:25:25.727Z,15.83
2022-08-17T05:28:28.286Z,15.77
2022-08-17T05:31:31.752Z,15.73
2022-08-17T05:34:33.784Z,15.90
2022-08-17T05:37:35.806Z,16.17
2022-08-17T05:40:38.535Z,16.33
2022-08-17T05:43:42.709Z,16.36
2022-08-17T05:46:49.353Z,16.54
2022-08-17T05:49:51.503Z,16.76
2022-08-17T05:53:31.009Z,16.72
2022-08-17T05:56:43.951Z,16.78
2022-08-17T06:00:08.354Z,16.71
2022-08-17T06:03:30.123Z,16.76
2022-08-17T06:06:38.505Z,16.97
2022-08-17T06:09:51.725Z,17.30
2022-08-17T06:13:12.808Z,17.32
2022-08-17T06:16:33.554Z,17.42
2022-08-17T06:20:06.209Z,17.64
2022-08-17T06:23:14.939Z,17.77
2022-08-17T06:26:25.876Z,17.89
2022-08-17T06:29:41.434Z,17.99
2022-08-17T06:32:46.913Z,18.00
2022-08-17T06:36:25.560Z,18.02
2022-08-17T06:39:46.079Z,18.15
2022-08-17T06:43:06.180Z,18.27
2022-08-17T06:46:15.562Z,18.44
2022-08-17T06:49:21.974Z,18.60
2022-08-17T06:52:47.187Z,18.78
2022-08-17T06:56:53.104Z,19.02
2022-08-17T07:00:04.862Z,19.29
2022-08-17T07:03:21.048Z,19.64
2022-08-17T07:06:49.433Z,19.97
2022-08-17T07:09:53.282Z,20.42
2022-08-17T07:13:03.426Z,20.69
2022-08-17T07:16:28.207Z,21.05
2022-08-17T07:19:33.107Z,21.29
2022-08-17T07:23:00.468Z,21.61
2022-08-17T07:26:09.357Z,21.94
2022-08-17T07:29:16.502Z,22.38
2022-08-17T07:32:32.011Z,22.73
2022-08-17T07:35:41.326Z,23.29
2022-08-17T07:38:57.776Z,23.87
2022-08-17T07:42:04.584Z,24.28
2022-08-17T07:45:28.491Z,24.62
2022-08-17T07:48:37.269Z,24.93
2022-08-17T07:51:39.725Z,25.33
2022-08-17T07:54:42.978Z,25.76
2022-08-17T07:57:57.654Z,26.23
2022-08-17T08:01:10.347Z,26.88
2022-08-17T08:04:49.880Z,27.28
2022-08-17T08:07:57.267Z,27.80
2022-08-17T08:11:07.555Z,28.25
2022-08-17T08:14:31.406Z,28.73
2022-08-17T08:17:36.916Z,29.12
2022-08-17T08:20:53.312Z,29.53
2022-08-17T08:24:06.255Z,29.89
2022-08-17T08:27:10.929Z,30.30
2022-08-17T08:30:18.588Z,30.53
2022-08-17T08:33:49.922Z,30.72
2022-08-17T08:36:59.298Z,30.85
2022-08-17T08:40:41.100Z,31.05
2022-08-17T08:43:55.329Z,31.16
2022-08-17T08:47:19.520Z,31.37
2022-08-17T08:50:40.650Z,31.58
2022-08-17T08:53:59.611Z,31.90
2022-08-17T08:57:30.970Z,32.01
2022-08-17T09:00:44.069Z,31.89
2022-08-17T09:04:23.674Z,32.10
2022-08-17T09:07:35.011Z,32.10
2022-08-17T09:10:57.002Z,32.59
2022-08-17T09:14:21.278Z,32.96
2022-08-17T09:17:43.468Z,33.04
2022-08-17T09:20:59.721Z,32.98
2022-08-17T09:24:14.348Z,32.47
2022-08-17T09:27:35.671Z,32.90
2022-08-17T09:30:43.707Z,32.98
2022-08-17T09:33:48.449Z,33.22
2022-08-17T09:36:56.087Z,33.64
2022-08-17T09:40:23.758Z,33.87
2022-08-17T09:43:31.683Z,34.00
2022-08-17T09:46:39.794Z,34.07
2022-08-17T09:49:46.710Z,33.83
2022-08-17T09:52:53.088Z,34.02
2022-08-17T09:56:13.119Z,33.98
2022-08-17T09:59:23.917Z,33.86
2022-08-17T10:02:43.064Z,33.87
2022-08-17T10:05:46.582Z,34.36
2022-08-17T10:08:54.303Z,34.39
2022-08-17T10:12:46.421Z,34.59
2022-08-17T10:16:08.282Z,34.39
2022-08-17T10:19:22.622Z,34.92
2022-08-17T10:22:59.178Z,34.90
2022-08-17T10:26:16.984Z,35.20
2022-08-17T10:29:48.862Z,35.58
2022-08-17T10:32:56.251Z,35.74
2022-08-17T10:36:11.352Z,36.13
2022-08-17T10:39:22.353Z,36.09
2022-08-17T10:42:34.990Z,36.09
2022-08-17T10:46:30.695Z,35.85
2022-08-17T10:49:17.566Z,35.38
2022-08-17T10:52:19.496Z,34.98
2022-08-17T10:55:21.772Z,35.41
2022-08-17T10:58:24.798Z,36.03
2022-08-17T11:01:32.396Z,36.16
2022-08-17T11:04:55.889Z,36.68
2022-08-17T11:08:29.703Z,36.71
2022-08-17T11:12:02.805Z,36.78
2022-08-17T11:15:19.836Z,37.52
2022-08-17T11:18:56.240Z,36.47
2022-08-17T11:22:39.182Z,37.25
2022-08-17T11:25:48.161Z,36.93
2022-08-17T11:28:52.663Z,36.49
2022-08-17T11:32:06.717Z,36.43
2022-08-17T11:35:22.380Z,36.71
2022-08-17T11:38:46.313Z,37.03
2022-08-17T11:42:25.928Z,37.47
2022-08-17T11:45:33.287Z,37.72
2022-08-17T11:49:12.047Z,38.26
2022-08-17T11:52:40.130Z,37.95
2022-08-17T11:55:44.986Z,38.28
2022-08-17T11:58:47.156Z,37.53
2022-08-17T12:02:19.988Z,38.02
2022-08-17T12:05:32.448Z,38.46
2022-08-17T12:08:43.567Z,37.33
2022-08-17T12:12:12.137Z,37.80
2022-08-17T12:15:27.453Z,38.37
2022-08-17T12:18:36.085Z,38.97
2022-08-17T12:21:55.399Z,39.39
2022-08-17T12:25:11.051Z,38.99
2022-08-17T12:28:29.878Z,39.13
2022-08-17T12:31:37.329Z,39.45
2022-08-17T12:34:41.999Z,39.89
2022-08-17T12:37:49.487Z,39.90
2022-08-17T12:40:58.133Z,39.39
2022-08-17T12:44:13.625Z,37.66
2022-08-17T12:47:22.194Z,36.78
2022-08-17T12:50:29.192Z,37.01
2022-08-17T12:53:35.375Z,37.27
2022-08-17T12:56:37.438Z,37.96
2022-08-17T12:59:47.575Z,38.86
2022-08-17T13:03:13.395Z,39.47
2022-08-17T13:06:31.766Z,39.96
2022-08-17T13:09:40.500Z,40.22
2022-08-17T13:12:43.212Z,39.92
2022-08-17T13:15:56.286Z,39.76
2022-08-17T13:19:15.365Z,40.36
2022-08-17T13:22:22.565Z,40.97
2022-08-17T13:25:26.846Z,40.94
2022-08-17T13:28:29.884Z,40.26
2022-08-17T13:31:52.450Z,39.61
2022-08-17T13:35:13.766Z,39.56
2022-08-17T13:38:47.458Z,40.80
2022-08-17T13:41:53.167Z,42.05
2022-08-17T13:44:55.278Z,42.71
2022-08-17T13:48:12.376Z,43.01
2022-08-17T13:51:24.963Z,44.35
2022-08-17T13:54:29.718Z,45.28
2022-08-17T13:57:31.947Z,46.77
2022-08-17T14:00:36.879Z,47.45
2022-08-17T14:03:38.944Z,47.97
2022-08-17T14:06:55.220Z,48.11
2022-08-17T14:10:09.551Z,49.58
2022-08-17T14:13:13.367Z,49.90
2022-08-17T14:16:15.772Z,50.30
2022-08-17T14:19:18.213Z,50.61
2022-08-17T14:22:28.042Z,50.24
2022-08-17T14:25:32.541Z,49.40
2022-08-17T14:28:36.498Z,50.17
2022-08-17T14:31:39.157Z,50.34
2022-08-17T14:34:41.254Z,50.64
2022-08-17T14:37:45.914Z,50.07
2022-08-17T14:40:48.939Z,50.91
2022-08-17T14:43:53.651Z,51.27
2022-08-17T14:46:55.615Z,49.18
2022-08-17T14:49:58.271Z,46.61
2022-08-17T14:53:01.707Z,46.32
2022-08-17T14:56:04.725Z,44.14
2022-08-17T14:59:09.690Z,45.66
2022-08-17T15:02:12.399Z,45.83
2022-08-17T15:05:16.676Z,47.39
2022-08-17T15:08:19.741Z,47.61
2022-08-17T15:11:21.851Z,46.57
2022-08-17T15:14:23.955Z,43.94
2022-08-17T15:17:25.978Z,43.28
2022-08-17T15:20:49.372Z,45.35
2022-08-17T15:23:51.348Z,46.52
2022-08-17T15:26:53.335Z,47.55
2022-08-17T15:29:55.317Z,48.77
2022-08-17T15:32:59.257Z,49.06
2022-08-17T15:36:06.695Z,47.06
2022-08-17T15:39:08.691Z,43.82
2022-08-17T15:42:10.704Z,40.86
2022-08-17T15:45:14.123Z,39.47
2022-08-17T15:48:16.226Z,38.04
2022-08-17T15:51:22.662Z,36.65
2022-08-17T15:54:24.723Z,36.38
2022-08-17T15:57:33.990Z,35.97
2022-08-17T16:00:49.442Z,35.30
2022-08-17T16:04:04.191Z,34.56
2022-08-17T16:07:10.781Z,34.46
2022-08-17T16:10:18.230Z,34.01
2022-08-17T16:13:23.989Z,33.85
2022-08-17T16:16:26.306Z,33.70
2022-08-17T16:19:28.849Z,33.53
2022-08-17T16:22:37.672Z,33.47
2022-08-17T16:25:53.587Z,33.17
2022-08-17T16:28:57.797Z,32.72
2022-08-17T16:32:08.850Z,32.58
2022-08-17T16:35:13.059Z,32.48
2022-08-17T16:38:15.054Z,32.10
2022-08-17T16:41:37.679Z,31.55
2022-08-17T16:44:39.682Z,31.13
2022-08-17T16:47:42.203Z,30.76
2022-08-17T16:50:44.339Z,30.51
2022-08-17T16:54:07.094Z,30.16
2022-08-17T16:57:11.355Z,29.66
2022-08-17T17:00:16.614Z,29.39
2022-08-17T17:03:21.756Z,29.26
2022-08-17T17:06:51.328Z,29.19
2022-08-17T17:09:55.644Z,28.96
2022-08-17T17:13:01.395Z,28.78
2022-08-17T17:16:05.364Z,28.39
2022-08-17T17:19:35.634Z,27.99
2022-08-17T17:22:48.426Z,27.68
2022-08-17T17:26:03.435Z,27.42
2022-08-17T17:29:33.976Z,27.17
2022-08-17T17:33:14.657Z,27.04
2022-08-17T17:36:38.303Z,26.87
2022-08-17T17:39:56.994Z,26.68
2022-08-17T17:43:20.438Z,26.45
2022-08-17T17:46:29.311Z,26.09
2022-08-17T17:49:38.461Z,25.92
2022-08-17T17:52:50.482Z,25.77
2022-08-17T17:55:59.690Z,25.44
2022-08-17T17:59:21.218Z,25.15
2022-08-17T18:02:51.784Z,24.89
2022-08-17T18:06:09.865Z,24.79
2022-08-17T18:09:12.298Z,24.68
2022-08-17T18:13:05.546Z,24.52
2022-08-17T18:16:12.379Z,24.30
2022-08-17T18:19:20.120Z,24.13
2022-08-17T18:22:23.945Z,23.96
2022-08-17T18:25:46.160Z,23.76
2022-08-17T18:28:51.648Z,23.67
2022-08-17T18:32:15.368Z,24.18
2022-08-17T18:35:20.352Z,23.65
2022-08-17T18:38:36.872Z,23.35
2022-08-17T18:41:45.139Z,23.27
2022-08-17T18:44:49.611Z,23.23
2022-08-17T18:47:56.104Z,23.14
2022-08-17T18:51:02.042Z,23.08
2022-08-17T18:54:23.066Z,22.97
2022-08-17T18:57:33.032Z,22.82
2022-08-17T19:00:41.327Z,22.64
2022-08-17T19:03:43.644Z,22.55
2022-08-17T19:06:45.670Z,22.44
2022-08-17T19:09:55.480Z,22.27
2022-08-17T19:13:29.143Z,22.23
2022-08-17T19:17:12.658Z,22.12
2022-08-17T19:20:20.310Z,22.04
2022-08-17T19:23:33.249Z,21.95
2022-08-17T19:26:53.609Z,21.92
2022-08-17T19:30:11.895Z,21.84
2022-08-17T19:33:14.289Z,21.75
2022-08-17T19:36:22.480Z,21.71
2022-08-17T19:39:38.137Z,21.58
2022-08-17T19:43:06.939Z,21.39
2022-08-17T19:46:26.397Z,21.29
2022-08-17T19:50:07.201Z,21.23
2022-08-17T19:53:36.697Z,21.09
2022-08-17T19:57:01.969Z,21.05
2022-08-17T20:00:14.537Z,21.04
2022-08-17T20:03:25.926Z,20.98
2022-08-17T20:06:32.111Z,20.91
2022-08-17T20:09:38.519Z,20.96
2022-08-17T20:12:44.861Z,20.92
2022-08-17T20:15:47.770Z,20.81
2022-08-17T20:18:59.889Z,20.67
2022-08-17T20:22:11.715Z,20.54
2022-08-17T20:25:40.976Z,20.47
2022-08-17T20:29:08.470Z,20.38
2022-08-17T20:32:19.105Z,20.32
2022-08-17T20:35:21.200Z,20.38
2022-08-17T20:38:44.104Z,20.38
2022-08-17T20:42:06.311Z,20.35
2022-08-17T20:46:02.069Z,20.25
2022-08-17T20:49:37.997Z,20.14
2022-08-17T20:52:46.131Z,20.09
2022-08-17T20:55:51.974Z,20.13
2022-08-17T20:58:55.717Z,20.10
2022-08-17T21:02:18.770Z,20.08
2022-08-17T21:05:37.491Z,20.06
2022-08-17T21:09:29.963Z,20.01
2022-08-17T21:13:04.686Z,20.01
2022-08-17T21:16:30.159Z,19.94
2022-08-17T21:20:09.839Z,19.93
2022-08-17T21:23:16.702Z,19.88
2022-08-17T21:26:32.534Z,19.84
2022-08-17T21:29:40.533Z,19.83
2022-08-17T21:32:44.632Z,19.72
2022-08-17T21:35:50.364Z,19.72
2022-08-17T21:39:00.390Z,19.73
2022-08-17T21:42:02.919Z,19.69
2022-08-17T21:45:25.452Z,19.59
2022-08-17T21:48:28.942Z,19.58
2022-08-17T21:51:32.630Z,19.52
2022-08-17T21:54:42.863Z,19.37
2022-08-17T21:57:52.791Z,19.25
2022-08-17T22:01:13.485Z,19.13
2022-08-17T22:04:19.737Z,19.22
2022-08-17T22:07:45.962Z,19.25
2022-08-17T22:10:50.864Z,19.21
2022-08-17T22:14:00.598Z,19.16
2022-08-17T22:17:17.016Z,19.22
2022-08-17T22:20:20.996Z,19.17
2022-08-17T22:23:52.457Z,19.15
2022-08-17T22:27:11.732Z,19.21
2022-08-17T22:30:28.830Z,19.18
2022-08-17T22:33:36.372Z,19.16
2022-08-17T22:36:41.934Z,19.08
2022-08-17T22:39:44.039Z,19.00
2022-08-17T22:42:48.183Z,18.97
2022-08-17T22:45:54.866Z,18.99
2022-08-17T22:48:59.483Z,18.92
2022-08-17T22:52:05.781Z,18.92
2022-08-17T22:55:32.396Z,18.88
2022-08-17T22:58:58.703Z,18.85
2022-08-17T23:02:26.862Z,18.90
2022-08-17T23:05:30.151Z,18.86
2022-08-17T23:08:35.497Z,18.80
2022-08-17T23:11:50.372Z,18.78
2022-08-17T23:15:01.329Z,18.81
2022-08-17T23:18:05.016Z,18.73
2022-08-17T23:21:07.865Z,18.74
2022-08-17T23:24:11.393Z,18.74
2022-08-17T23:27:13.619Z,18.71
2022-08-17T23:30:15.663Z,18.68
2022-08-17T23:33:30.244Z,18.65
2022-08-17T23:36:32.701Z,18.59
2022-08-17T23:39:35.496Z,18.55
2022-08-17T23:42:46.217Z,18.50
2022-08-17T23:45:49.165Z,18.41
2022-08-17T23:48:54.326Z,18.37
2022-08-17T23:51:56.780Z,18.29
2022-08-17T23:54:59.593Z,18.23
2022-08-17T23:58:04.248Z,18.20
